Time;durP1;ratioP1;P1;durP2;ratioP2;P2;SDS_P1;SDS_P2;PMS_P1;PMS_P2;Temp;Humidity;BMP_temperature;BMP_pressure;BME280_temperature;BME280_humidity;BME280_pressure;Samples;Min_cycle;Max_cycle;Signal;HPM_P1;HPM_P2
2022/05/26 00:00:38;;;;;;;32.67;8.35;;;13.70;99.90;;;;;;4961652;28;20602;-88
2022/05/26 00:03:04;;;;;;;30.65;8.50;;;13.70;99.90;;;;;;4985094;28;20047;-84
2022/05/26 00:05:30;;;;;;;35.20;8.75;;;13.70;99.90;;;;;;4957702;28;20535;-89
2022/05/26 00:07:58;;;;;;;38.90;9.18;;;13.60;99.90;;;;;;4961474;29;20083;-88
2022/05/26 00:10:25;;;;;;;32.88;7.47;;;13.60;99.90;;;;;;4941214;29;20058;-85
2022/05/26 00:12:50;;;;;;;46.90;8.32;;;13.60;99.90;;;;;;4956211;29;20215;-85
2022/05/26 00:15:16;;;;;;;33.58;7.70;;;13.60;99.90;;;;;;4943623;29;20076;-87
2022/05/26 00:17:42;;;;;;;36.13;8.40;;;13.50;99.90;;;;;;4946844;29;20047;-88
2022/05/26 00:20:09;;;;;;;41.40;8.85;;;13.50;99.90;;;;;;4946681;29;20059;-88
2022/05/26 00:22:35;;;;;;;25.45;6.10;;;13.50;99.90;;;;;;4958362;29;20110;-91
2022/05/26 00:25:03;;;;;;;24.73;6.72;;;13.50;99.90;;;;;;4944966;29;20074;-92
2022/05/26 00:27:28;;;;;;;30.60;7.15;;;13.50;99.90;;;;;;4958140;29;20059;-84
2022/05/26 00:29:54;;;;;;;35.03;7.18;;;13.40;99.90;;;;;;4936773;29;20047;-87
2022/05/26 00:32:20;;;;;;;27.15;6.78;;;13.40;99.90;;;;;;4954740;29;20051;-87
2022/05/26 00:34:46;;;;;;;32.60;6.28;;;13.40;99.90;;;;;;4939668;29;20400;-89
2022/05/26 00:37:12;;;;;;;31.33;8.30;;;13.40;99.90;;;;;;4958976;29;20487;-88
2022/05/26 00:39:39;;;;;;;25.90;7.00;;;13.50;99.90;;;;;;4957373;29;20098;-89
2022/05/26 00:42:07;;;;;;;29.70;6.68;;;13.40;99.90;;;;;;4947621;29;20079;-92
2022/05/26 00:44:34;;;;;;;33.13;8.65;;;13.40;99.90;;;;;;4939492;29;20521;-86
2022/05/26 00:47:17;;;;;;;27.10;6.05;;;13.50;99.90;;;;;;4929941;29;20090;-87
2022/05/26 00:49:45;;;;;;;29.63;6.20;;;13.50;99.90;;;;;;4956289;29;20103;-91
2022/05/26 00:52:14;;;;;;;29.95;6.30;;;13.50;99.90;;;;;;4938712;29;20086;-91
2022/05/26 00:54:42;;;;;;;27.30;6.28;;;13.50;99.90;;;;;;4940602;29;20511;-93
2022/05/26 00:57:25;;;;;;;37.72;7.22;;;13.50;99.90;;;;;;4939467;29;20074;-90
2022/05/26 01:00:01;;;;;;;26.45;5.53;;;13.50;99.90;;;;;;4945690;29;20055;-89
2022/05/26 01:02:33;;;;;;;32.78;7.10;;;13.50;99.90;;;;;;4949163;29;20059;-90
2022/05/26 01:05:07;;;;;;;30.55;5.18;;;13.50;99.90;;;;;;4940133;29;20051;-86
2022/05/26 01:07:37;;;;;;;24.58;5.47;;;13.50;99.90;;;;;;4956412;29;20070;-87
2022/05/26 01:10:10;;;;;;;23.67;4.35;;;13.60;99.90;;;;;;4960124;29;20145;-88
2022/05/26 01:12:36;;;;;;;25.08;5.88;;;13.60;99.90;;;;;;4947995;29;20051;-86
2022/05/26 01:15:12;;;;;;;25.88;4.70;;;13.60;99.90;;;;;;4945735;29;20062;-88
2022/05/26 01:17:50;;;;;;;23.63;5.07;;;13.60;99.90;;;;;;4921571;29;20058;-85
2022/05/26 01:20:39;;;;;;;18.48;4.43;;;13.60;99.90;;;;;;4963053;29;20048;-85
2022/05/26 01:23:11;;;;;;;13.55;3.65;;;13.70;99.90;;;;;;4936535;29;20054;-87
2022/05/26 01:26:12;;;;;;;20.08;4.97;;;13.70;99.90;;;;;;4953964;29;20599;-87
2022/05/26 01:28:58;;;;;;;20.55;4.13;;;13.70;99.90;;;;;;4953509;29;20090;-86
2022/05/26 01:31:45;;;;;;;19.60;3.90;;;13.70;99.90;;;;;;4954346;29;20474;-85
2022/05/26 01:34:14;;;;;;;16.92;3.80;;;13.70;99.90;;;;;;4937658;29;20440;-86
2022/05/26 01:36:46;;;;;;;19.02;4.63;;;13.60;99.90;;;;;;4960792;29;20058;-87
2022/05/26 01:39:38;;;;;;;12.73;3.42;;;13.60;99.90;;;;;;4957609;29;20055;-88
2022/05/26 01:42:13;;;;;;;18.27;3.78;;;13.60;99.90;;;;;;4939004;29;20055;-85
2022/05/26 01:44:45;;;;;;;16.23;4.55;;;13.60;99.90;;;;;;4958914;29;20057;-86
2022/05/26 01:47:37;;;;;;;14.88;3.80;;;13.60;99.90;;;;;;4958067;28;20133;-87
2022/05/26 01:50:21;;;;;;;18.70;5.18;;;13.60;99.90;;;;;;4946155;29;20051;-86
2022/05/26 01:53:08;;;;;;;25.60;4.90;;;13.50;99.90;;;;;;4963658;28;20051;-87
2022/05/26 01:56:02;;;;;;;22.80;4.50;;;13.50;99.90;;;;;;4972757;29;20051;-87
2022/05/26 01:58:40;;;;;;;33.45;5.32;;;13.50;99.90;;;;;;4945819;29;20059;-87
2022/05/26 02:01:14;;;;;;;25.52;4.80;;;13.50;99.90;;;;;;4941155;29;20055;-86
2022/05/26 02:03:43;;;;;;;27.55;5.43;;;13.50;99.90;;;;;;4956656;29;20047;-86
2022/05/26 02:06:28;;;;;;;27.48;5.35;;;13.50;99.90;;;;;;4939052;28;20063;-86
2022/05/26 02:09:17;;;;;;;22.77;4.32;;;13.40;99.90;;;;;;4940026;29;20147;-85
2022/05/26 02:12:16;;;;;;;21.15;3.95;;;13.40;99.90;;;;;;4962978;29;20074;-87
2022/05/26 02:15:06;;;;;;;25.17;4.80;;;13.30;99.90;;;;;;4956385;29;20411;-87
2022/05/26 02:18:00;;;;;;;16.13;4.95;;;13.30;99.90;;;;;;4957000;29;20411;-88
2022/05/26 02:20:32;;;;;;;20.00;4.07;;;13.30;99.90;;;;;;4902669;29;20047;-86
2022/05/26 02:23:30;;;;;;;17.80;4.28;;;13.30;99.90;;;;;;4938711;29;20047;-86
2022/05/26 02:25:57;;;;;;;17.50;4.47;;;13.30;99.90;;;;;;4906927;29;20047;-85
2022/05/26 02:28:23;;;;;;;18.77;3.45;;;13.40;99.90;;;;;;4940024;29;20055;-85
2022/05/26 02:30:50;;;;;;;22.83;4.93;;;13.40;99.90;;;;;;4942698;29;20051;-89
2022/05/26 02:33:17;;;;;;;15.85;3.78;;;13.40;99.90;;;;;;4938540;29;20511;-86
2022/05/26 02:35:49;;;;;;;16.45;4.15;;;13.30;99.90;;;;;;4956072;29;20149;-89
2022/05/26 02:38:22;;;;;;;15.77;3.35;;;13.30;99.90;;;;;;4956453;29;20048;-87
2022/05/26 02:40:49;;;;;;;15.95;2.53;;;13.20;99.90;;;;;;4940110;29;20055;-85
2022/05/26 02:43:20;;;;;;;14.43;2.80;;;13.20;99.90;;;;;;4947772;29;20055;-86
2022/05/26 02:46:24;;;;;;;11.80;2.95;;;13.10;99.90;;;;;;4944475;29;20452;-87
2022/05/26 02:49:04;;;;;;;16.17;2.90;;;13.10;99.90;;;;;;4862120;29;20073;-88
2022/05/26 02:51:42;;;;;;;20.45;3.63;;;13.00;99.90;;;;;;4945642;29;20051;-85
2022/05/26 02:54:17;;;;;;;17.98;3.20;;;13.00;99.90;;;;;;4938822;29;20057;-86
2022/05/26 02:57:25;;;;;;;9.65;2.28;;;12.90;99.90;;;;;;4960961;29;20047;-89
2022/05/26 02:59:59;;;;;;;14.98;2.83;;;12.80;99.90;;;;;;4844220;29;20510;-86
2022/05/26 03:02:40;;;;;;;13.90;2.70;;;12.80;99.90;;;;;;4847807;29;20072;-85
2022/05/26 03:05:19;;;;;;;14.45;2.13;;;12.80;99.90;;;;;;4895575;28;20047;-87
2022/05/26 03:07:49;;;;;;;14.52;2.63;;;12.80;99.90;;;;;;4924210;29;20110;-90
2022/05/26 03:10:17;;;;;;;13.93;2.80;;;12.80;99.90;;;;;;4955836;29;20426;-86
2022/05/26 03:12:43;;;;;;;12.93;2.83;;;12.70;99.90;;;;;;4939816;29;20051;-86
2022/05/26 03:15:09;;;;;;;13.38;3.00;;;12.70;99.90;;;;;;4942905;29;20059;-84
2022/05/26 03:17:35;;;;;;;13.95;3.90;;;12.70;99.90;;;;;;4957329;29;20126;-86
2022/05/26 03:20:03;;;;;;;18.77;2.58;;;12.60;99.90;;;;;;4963251;29;20356;-86
2022/05/26 03:22:29;;;;;;;13.85;2.17;;;12.60;99.90;;;;;;4966349;29;20070;-85
2022/05/26 03:24:54;;;;;;;19.27;2.63;;;12.60;99.90;;;;;;4943552;29;20137;-87
2022/05/26 03:27:21;;;;;;;12.63;2.40;;;12.60;99.90;;;;;;4939117;29;20155;-89
2022/05/26 03:29:47;;;;;;;12.27;2.65;;;12.50;99.90;;;;;;4959664;29;20079;-84
2022/05/26 03:32:13;;;;;;;12.40;2.30;;;12.50;99.90;;;;;;4955090;29;20091;-89
2022/05/26 03:42:53;;;;;;;16.15;3.10;;;12.50;99.90;;;;;;4954219;29;20298;-87
2022/05/26 03:45:23;;;;;;;15.27;2.85;;;12.50;99.90;;;;;;4953626;29;20066;-84
2022/05/26 03:47:50;;;;;;;15.30;2.60;;;12.50;99.90;;;;;;4940255;29;20512;-85
2022/05/26 03:50:17;;;;;;;15.10;2.70;;;12.60;99.90;;;;;;4954531;29;20090;-87
2022/05/26 03:52:43;;;;;;;13.52;2.72;;;12.60;99.90;;;;;;4943468;28;20059;-85
2022/05/26 03:55:09;;;;;;;16.20;3.28;;;12.60;99.90;;;;;;4954848;29;20062;-84
2022/05/26 03:57:35;;;;;;;20.52;3.92;;;12.60;99.90;;;;;;4954509;29;20043;-85
2022/05/26 04:00:01;;;;;;;16.55;3.00;;;12.60;99.90;;;;;;4937027;29;20051;-86
2022/05/26 04:02:27;;;;;;;11.93;2.70;;;12.70;99.90;;;;;;4937118;29;20551;-85
2022/05/26 04:04:53;;;;;;;13.00;2.63;;;12.60;99.90;;;;;;4955079;29;20440;-84
2022/05/26 04:07:19;;;;;;;11.60;2.17;;;12.70;99.90;;;;;;4941723;28;20495;-83
2022/05/26 04:09:45;;;;;;;14.23;2.40;;;12.70;99.90;;;;;;4962252;28;20054;-83
2022/05/26 04:12:12;;;;;;;10.95;2.03;;;12.70;99.90;;;;;;4937935;29;20055;-83
2022/05/26 04:14:38;;;;;;;10.82;2.33;;;12.80;99.90;;;;;;4937872;29;20055;-84
2022/05/26 04:17:04;;;;;;;11.63;1.88;;;12.80;99.90;;;;;;4938956;29;20340;-83
2022/05/26 04:19:31;;;;;;;15.15;2.53;;;12.90;99.90;;;;;;4957770;29;20058;-82
2022/05/26 04:24:48;;;;;;;14.80;1.98;;;13.00;99.90;;;;;;4955567;29;20053;-83
2022/05/26 04:27:16;;;;;;;13.02;2.20;;;13.00;99.90;;;;;;4957957;29;20059;-84
2022/05/26 04:29:42;;;;;;;10.18;1.58;;;13.00;99.90;;;;;;4962252;29;20066;-85
2022/05/26 04:32:09;;;;;;;8.70;1.55;;;13.10;99.90;;;;;;4956420;29;20076;-84
2022/05/26 04:34:34;;;;;;;12.73;2.20;;;13.10;99.90;;;;;;4936935;29;20134;-82
2022/05/26 04:37:01;;;;;;;11.27;1.95;;;13.10;99.90;;;;;;4936867;29;20210;-85
2022/05/26 04:39:27;;;;;;;13.35;1.95;;;13.10;99.90;;;;;;4953924;29;20062;-84
2022/05/26 04:41:57;;;;;;;9.48;2.00;;;13.10;99.90;;;;;;4937310;29;20400;-83
2022/05/26 04:44:26;;;;;;;12.90;2.30;;;13.00;99.90;;;;;;4958195;29;20129;-85
2022/05/26 04:46:52;;;;;;;14.65;2.40;;;13.10;99.90;;;;;;4945989;29;20042;-84
2022/05/26 04:49:18;;;;;;;15.27;2.40;;;13.10;99.90;;;;;;4964866;29;20832;-87
2022/05/26 04:51:45;;;;;;;12.90;1.60;;;13.10;99.90;;;;;;4960559;29;20122;-82
2022/05/26 04:54:11;;;;;;;17.10;3.35;;;13.20;99.90;;;;;;4945334;29;20055;-85
2022/05/26 04:56:37;;;;;;;13.93;2.08;;;13.20;99.90;;;;;;4938640;29;20142;-84
2022/05/26 04:59:05;;;;;;;11.77;2.08;;;13.20;99.90;;;;;;4954594;29;20047;-86
2022/05/26 05:01:32;;;;;;;17.17;3.22;;;13.30;99.90;;;;;;4956050;29;20051;-84
2022/05/26 05:04:00;;;;;;;12.82;2.08;;;13.30;99.90;;;;;;4957783;29;20047;-90
2022/05/26 05:06:26;;;;;;;10.23;1.88;;;13.50;99.90;;;;;;4949850;28;20086;-84
2022/05/26 05:08:52;;;;;;;18.02;3.63;;;13.50;99.90;;;;;;4972809;28;20058;-84
2022/05/26 05:11:18;;;;;;;12.98;2.67;;;13.50;99.90;;;;;;4943089;28;20047;-83
2022/05/26 05:13:44;;;;;;;15.18;2.50;;;13.60;99.90;;;;;;4977650;28;20051;-84
2022/05/26 05:16:27;;;;;;;14.43;1.52;;;13.60;99.90;;;;;;4957904;28;20085;-84
2022/05/26 05:18:55;;;;;;;12.30;2.05;;;13.70;99.90;;;;;;4956906;28;20051;-84
2022/05/26 05:21:27;;;;;;;18.13;2.85;;;13.70;99.90;;;;;;4959593;28;20042;-85
2022/05/26 05:24:01;;;;;;;16.00;2.85;;;13.70;99.90;;;;;;4960808;28;20050;-85
2022/05/26 05:26:30;;;;;;;17.55;2.25;;;13.80;99.90;;;;;;4967837;28;20137;-86
2022/05/26 05:29:02;;;;;;;11.27;2.00;;;13.80;99.90;;;;;;4981594;28;20129;-86
2022/05/26 05:31:38;;;;;;;9.32;1.90;;;13.90;99.90;;;;;;4978854;28;20051;-84
2022/05/26 05:34:14;;;;;;;14.23;2.63;;;14.00;99.90;;;;;;4960551;28;20054;-84
2022/05/26 05:36:40;;;;;;;12.50;2.28;;;14.10;99.90;;;;;;4946286;28;20051;-83
2022/05/26 05:39:07;;;;;;;14.57;2.10;;;14.20;99.90;;;;;;4961365;28;20095;-86
2022/05/26 05:41:34;;;;;;;10.15;1.90;;;14.30;99.90;;;;;;4977189;28;20125;-87
2022/05/26 05:44:01;;;;;;;12.93;2.65;;;14.50;99.90;;;;;;4960861;28;20057;-88
2022/05/26 05:46:34;;;;;;;16.67;2.45;;;14.50;99.90;;;;;;4988112;28;20078;-84
2022/05/26 05:49:04;;;;;;;15.70;2.97;;;14.70;99.90;;;;;;4944910;28;20090;-84
2022/05/26 05:51:35;;;;;;;16.25;2.17;;;14.80;99.90;;;;;;4980171;28;20061;-89
2022/05/26 05:54:01;;;;;;;10.32;1.33;;;14.80;99.90;;;;;;4963077;28;20051;-87
2022/05/26 05:56:27;;;;;;;14.20;1.58;;;14.90;99.90;;;;;;4979337;28;20047;-85
2022/05/26 05:58:55;;;;;;;9.13;2.40;;;15.00;99.90;;;;;;4965047;28;20351;-85
2022/05/26 06:01:22;;;;;;;7.47;1.75;;;15.10;99.90;;;;;;4948092;28;20051;-84
2022/05/26 06:03:47;;;;;;;8.57;1.58;;;15.10;99.90;;;;;;4981451;28;20415;-84
2022/05/26 06:06:14;;;;;;;11.50;1.88;;;15.10;99.90;;;;;;4953858;28;20047;-83
2022/05/26 06:08:40;;;;;;;7.85;1.50;;;15.10;99.90;;;;;;4947549;29;20074;-85
2022/05/26 06:11:06;;;;;;;9.52;2.20;;;15.20;99.90;;;;;;4958828;29;20047;-86
2022/05/26 06:13:31;;;;;;;10.50;2.28;;;15.20;99.90;;;;;;4957853;29;20058;-85
2022/05/26 06:15:57;;;;;;;14.80;3.15;;;15.40;99.90;;;;;;4956710;29;20114;-84
2022/05/26 06:18:23;;;;;;;11.43;1.88;;;15.40;99.90;;;;;;4939780;29;20059;-84
2022/05/26 06:20:49;;;;;;;10.48;1.58;;;15.50;99.90;;;;;;4957045;29;20059;-85
2022/05/26 06:23:17;;;;;;;11.23;2.40;;;15.50;99.90;;;;;;4957446;29;20069;-85
2022/05/26 06:25:43;;;;;;;12.13;2.03;;;15.60;99.90;;;;;;4940861;29;20088;-86
2022/05/26 06:30:53;;;;;;;10.80;2.10;;;15.90;99.90;;;;;;4939911;29;20053;-84
2022/05/26 06:38:51;;;;;;;8.77;2.55;;;16.00;99.90;;;;;;4942080;29;20099;-85
2022/05/26 06:44:05;;;;;;;10.80;1.95;;;16.30;99.90;;;;;;4942506;29;20083;-84
2022/05/26 06:46:31;;;;;;;10.05;2.13;;;16.20;99.90;;;;;;4960084;29;20048;-85
2022/05/26 06:48:57;;;;;;;7.82;1.83;;;16.00;99.90;;;;;;4957549;29;20513;-84
2022/05/26 06:51:26;;;;;;;11.10;2.15;;;15.90;99.90;;;;;;4942663;29;20053;-86
2022/05/26 06:53:52;;;;;;;10.05;1.85;;;15.90;99.90;;;;;;4948225;29;20069;-86
2022/05/26 06:56:19;;;;;;;7.88;1.70;;;16.00;99.90;;;;;;4959391;29;20607;-88
2022/05/26 06:58:46;;;;;;;8.50;1.92;;;15.90;99.90;;;;;;4960549;29;20066;-93
2022/05/26 07:01:14;;;;;;;8.55;1.75;;;16.00;99.90;;;;;;4964328;29;20045;-85
2022/05/26 07:03:41;;;;;;;10.02;1.90;;;16.10;99.90;;;;;;4967735;29;20051;-85
2022/05/26 07:06:18;;;;;;;10.95;1.58;;;16.40;99.90;;;;;;4972220;28;20051;-88
2022/05/26 07:08:46;;;;;;;8.80;1.75;;;16.50;99.90;;;;;;4951187;28;20414;-85
2022/05/26 07:11:12;;;;;;;12.75;1.75;;;16.60;99.90;;;;;;4961851;28;20051;-91
2022/05/26 07:13:38;;;;;;;9.90;1.75;;;16.80;99.90;;;;;;4974469;28;20062;-86
2022/05/26 07:16:05;;;;;;;7.63;1.67;;;17.00;99.90;;;;;;4947769;28;20097;-93
2022/05/26 07:18:31;;;;;;;6.30;1.50;;;17.20;99.90;;;;;;4982066;28;20135;-89
2022/05/26 07:20:57;;;;;;;9.68;1.58;;;17.20;99.90;;;;;;4976811;28;20043;-90
2022/05/26 07:23:23;;;;;;;10.75;1.75;;;17.10;99.90;;;;;;4976413;28;20612;-85
2022/05/26 07:25:49;;;;;;;9.68;1.48;;;17.20;99.90;;;;;;4960491;28;20063;-85
2022/05/26 07:28:18;;;;;;;8.57;1.25;;;17.40;99.90;;;;;;4978839;28;20110;-85
2022/05/26 07:30:44;;;;;;;8.88;1.60;;;17.50;99.90;;;;;;4961410;28;20055;-84
2022/05/26 07:33:10;;;;;;;6.97;1.13;;;17.60;99.90;;;;;;4976897;28;20051;-85
2022/05/26 07:35:36;;;;;;;8.95;1.50;;;17.40;99.90;;;;;;4962738;28;20051;-91
2022/05/26 07:43:34;;;;;;;9.13;1.73;;;17.20;99.90;;;;;;4963315;28;20047;-86
2022/05/26 07:46:00;;;;;;;10.05;1.83;;;17.00;99.90;;;;;;4962199;28;20051;-89
2022/05/26 07:48:26;;;;;;;11.40;1.50;;;16.90;99.90;;;;;;4969600;28;20487;-91
2022/05/26 07:50:53;;;;;;;9.23;1.40;;;16.90;99.90;;;;;;4952196;28;20057;-88
2022/05/26 07:53:22;;;;;;;11.07;2.20;;;16.80;99.90;;;;;;4965772;28;20078;-86
2022/05/26 07:55:49;;;;;;;15.60;1.50;;;16.70;99.90;;;;;;4966806;28;20058;-93
2022/05/26 07:58:15;;;;;;;12.10;1.83;;;16.70;99.90;;;;;;4985094;28;20161;-93
2022/05/26 08:00:42;;;;;;;11.48;1.75;;;16.50;99.90;;;;;;4967846;28;20082;-89
2022/05/26 08:03:08;;;;;;;10.80;1.98;;;16.50;99.90;;;;;;4949058;28;20142;-90
2022/05/26 08:05:34;;;;;;;8.88;1.50;;;16.50;99.90;;;;;;4950705;28;20058;-86
2022/05/26 08:08:00;;;;;;;15.00;2.05;;;16.60;99.90;;;;;;4963553;28;20051;-85
2022/05/26 08:10:26;;;;;;;10.85;1.88;;;16.70;99.90;;;;;;4962680;28;20049;-89
2022/05/26 08:12:52;;;;;;;9.98;1.80;;;16.70;99.90;;;;;;4980238;28;20057;-90
2022/05/26 08:15:19;;;;;;;10.38;1.70;;;16.80;99.90;;;;;;4982783;28;20042;-91
2022/05/26 08:17:45;;;;;;;7.28;1.60;;;16.80;99.90;;;;;;4958107;28;20051;-87
2022/05/26 08:20:12;;;;;;;10.20;1.70;;;16.90;99.90;;;;;;4976927;28;20126;-86
2022/05/26 08:22:43;;;;;;;12.10;1.90;;;17.00;99.90;;;;;;4981441;28;20047;-85
2022/05/26 08:25:10;;;;;;;8.38;1.50;;;17.00;99.90;;;;;;4982165;28;20061;-86
2022/05/26 08:27:36;;;;;;;10.25;1.80;;;17.10;99.90;;;;;;4962150;28;20054;-86
2022/05/26 08:30:02;;;;;;;7.70;1.20;;;17.10;99.90;;;;;;4946102;28;20061;-88
2022/05/26 08:32:28;;;;;;;8.07;1.35;;;17.00;99.90;;;;;;4968967;28;20113;-88
2022/05/26 08:35:03;;;;;;;11.75;2.08;;;17.00;99.90;;;;;;4967551;28;20050;-87
2022/05/26 08:37:29;;;;;;;9.45;1.63;;;17.20;99.90;;;;;;4965833;28;20073;-85
2022/05/26 08:39:55;;;;;;;9.63;1.65;;;17.40;99.90;;;;;;4985349;28;20492;-87
2022/05/26 08:42:25;;;;;;;8.88;2.15;;;17.50;99.90;;;;;;4969099;28;20105;-88
2022/05/26 08:44:55;;;;;;;14.95;2.35;;;17.40;99.90;;;;;;4967512;28;20054;-86
2022/05/26 08:47:32;;;;;;;10.70;1.73;;;17.40;99.90;;;;;;4983902;28;20062;-89
2022/05/26 08:50:10;;;;;;;9.07;1.60;;;17.50;99.90;;;;;;4956046;28;20057;-85
2022/05/26 08:53:03;;;;;;;7.80;1.40;;;17.60;99.90;;;;;;4990075;28;20114;-87
2022/05/26 08:55:32;;;;;;;5.97;1.27;;;17.60;99.90;;;;;;4960832;28;20081;-84
2022/05/26 08:58:16;;;;;;;5.32;0.93;;;17.70;99.90;;;;;;4956243;28;20109;-89
2022/05/26 09:00:45;;;;;;;10.50;1.58;;;17.90;99.90;;;;;;4967475;28;20527;-87
2022/05/26 09:03:25;;;;;;;6.50;1.40;;;18.10;99.90;;;;;;4971326;28;20176;-86
2022/05/26 09:06:18;;;;;;;8.15;1.63;;;18.30;99.90;;;;;;4915968;28;1482851;-93
2022/05/26 09:14:32;;;;;;;8.52;1.65;;;18.50;99.90;;;;;;4973550;28;20500;-87
2022/05/26 09:17:07;;;;;;;9.23;2.30;;;18.80;99.90;;;;;;4973296;28;20082;-86
2022/05/26 09:19:50;;;;;;;9.15;1.35;;;18.90;99.90;;;;;;4939913;28;20051;-86
2022/05/26 09:22:39;;;;;;;7.65;1.65;;;19.30;99.90;;;;;;4956239;28;20051;-86
2022/05/26 09:25:11;;;;;;;9.13;1.38;;;19.30;99.90;;;;;;4956445;28;20046;-86
2022/05/26 09:27:38;;;;;;;10.25;1.58;;;19.40;99.90;;;;;;4955715;28;20154;-86
2022/05/26 09:30:29;;;;;;;7.00;1.38;;;19.50;99.90;;;;;;4973836;28;20054;-86
2022/05/26 09:32:55;;;;;;;4.90;0.95;;;19.50;99.90;;;;;;4974912;28;20046;-88
2022/05/26 09:35:22;;;;;;;5.97;1.55;;;19.30;99.90;;;;;;4977175;28;20042;-84
2022/05/26 09:37:50;;;;;;;4.75;1.02;;;19.40;99.90;;;;;;4980097;28;20078;-84
2022/05/26 09:40:25;;;;;;;7.50;1.30;;;19.40;99.90;;;;;;4961391;28;20054;-91
2022/05/26 09:43:02;;;;;;;6.65;1.50;;;19.70;99.90;;;;;;4980620;28;20178;-85
2022/05/26 09:45:44;;;;;;;6.32;1.58;;;19.70;99.60;;;;;;4967464;28;20427;-86
2022/05/26 09:48:40;;;;;;;6.47;1.25;;;19.80;99.90;;;;;;4951359;28;20082;-86
2022/05/26 09:51:09;;;;;;;6.88;1.60;;;20.00;99.90;;;;;;4949500;28;20106;-96
2022/05/26 09:53:39;;;;;;;8.48;1.60;;;20.10;99.90;;;;;;4961365;28;20074;-86
2022/05/26 09:56:06;;;;;;;7.35;1.40;;;20.50;99.90;;;;;;4960420;28;20062;-85
2022/05/26 09:58:39;;;;;;;6.10;1.30;;;20.80;99.90;;;;;;4961013;28;20107;-85
2022/05/26 10:01:23;;;;;;;4.35;0.93;;;20.60;98.90;;;;;;4978085;28;20119;-87
2022/05/26 10:04:12;;;;;;;4.85;1.30;;;20.80;97.40;;;;;;4974102;28;20069;-86
2022/05/26 10:07:04;;;;;;;8.88;1.55;;;20.70;97.00;;;;;;4947165;28;20066;-86
2022/05/26 10:10:15;;;;;;;5.72;1.27;;;20.80;97.50;;;;;;4940349;29;20055;-87
2022/05/26 10:12:49;;;;;;;7.72;1.65;;;20.40;97.60;;;;;;4862639;29;20056;-86
2022/05/26 10:15:40;;;;;;;;;;;20.20;99.40;;;;;;4864201;29;20053;-86
2022/05/26 10:18:26;;;;;;;10.05;2.03;;;19.80;99.50;;;;;;4904535;29;19922;-86
2022/05/26 10:21:08;;;;;;;6.18;1.25;;;19.90;99.90;;;;;;4942274;29;20055;-87
2022/05/26 10:23:49;;;;;;;5.60;1.60;;;20.00;99.70;;;;;;4928796;29;20468;-87
2022/05/26 10:26:49;;;;;;;6.47;1.83;;;20.00;99.20;;;;;;4946960;29;20051;-87
2022/05/26 10:29:36;;;;;;;7.18;1.15;;;20.40;99.90;;;;;;4960962;29;20515;-85
2022/05/26 10:32:36;;;;;;;6.93;1.50;;;20.40;99.20;;;;;;4942373;29;20059;-89
2022/05/26 10:35:24;;;;;;;8.63;1.58;;;20.50;98.50;;;;;;4900133;29;20504;-87
2022/05/26 10:38:15;;;;;;;5.95;1.65;;;20.30;98.60;;;;;;4949197;29;20051;-89
2022/05/26 10:40:59;;;;;;;7.68;1.25;;;20.30;99.20;;;;;;4950299;29;20074;-87
2022/05/26 10:43:58;;;;;;;10.00;1.53;;;20.40;99.90;;;;;;4951212;29;20061;-87
2022/05/26 10:46:28;;;;;;;8.10;1.20;;;20.60;98.70;;;;;;4937044;29;20148;-88
2022/05/26 10:49:15;;;;;;;8.30;1.52;;;20.50;99.20;;;;;;4967941;29;20136;-88
2022/05/26 10:51:46;;;;;;;9.02;1.65;;;20.70;99.10;;;;;;4945921;29;20143;-86
2022/05/26 10:54:23;;;;;;;7.25;1.98;;;20.30;99.40;;;;;;4964324;28;20515;-88
2022/05/26 10:57:06;;;;;;;6.90;1.75;;;20.00;99.80;;;;;;4933362;29;20702;-90
2022/05/26 10:59:50;;;;;;;7.00;1.83;;;19.80;99.80;;;;;;4944351;29;20090;-87
2022/05/26 11:02:29;;;;;;;8.13;1.35;;;19.90;99.90;;;;;;4961868;29;20542;-87
2022/05/26 11:04:59;;;;;;;6.65;1.70;;;20.10;99.90;;;;;;4965250;29;20058;-85
2022/05/26 11:07:40;;;;;;;8.93;1.75;;;20.00;99.90;;;;;;4952338;28;20066;-88
2022/05/26 11:10:29;;;;;;;7.43;1.40;;;20.40;99.90;;;;;;4971568;29;20031;-88
2022/05/26 11:13:10;;;;;;;9.25;1.88;;;20.30;99.90;;;;;;4912682;29;20140;-88
2022/05/26 11:18:48;;;;;;;11.82;1.90;;;19.90;99.90;;;;;;4943541;28;20054;-85
2022/05/26 11:21:19;;;;;;;6.57;1.88;;;19.90;99.90;;;;;;4943091;29;20132;-89
2022/05/26 11:23:46;;;;;;;8.35;1.30;;;19.70;99.90;;;;;;4926614;29;20051;-89
2022/05/26 11:26:33;;;;;;;6.00;1.60;;;19.50;99.90;;;;;;4927638;29;20055;-90
2022/05/26 11:29:09;;;;;;;6.13;1.75;;;19.20;99.90;;;;;;4962185;29;20139;-92
2022/05/26 11:37:36;;;;;;;7.75;1.50;;;19.10;99.90;;;;;;4951368;29;20134;-87
2022/05/26 11:40:11;;;;;;;6.43;1.35;;;19.00;99.90;;;;;;4948132;29;20057;-89
2022/05/26 11:42:51;;;;;;;4.95;1.30;;;19.40;99.90;;;;;;4932312;29;20057;-87
2022/05/26 11:45:20;;;;;;;9.43;1.40;;;19.40;99.90;;;;;;4942982;29;20075;-85
2022/05/26 11:48:00;;;;;;;11.73;2.45;;;19.80;99.90;;;;;;4957703;29;20082;-86
2022/05/26 11:50:48;;;;;;;11.10;1.98;;;20.00;99.90;;;;;;4940395;29;20062;-85
2022/05/26 11:53:36;;;;;;;11.40;1.92;;;20.10;99.90;;;;;;4941185;29;20110;-84
2022/05/26 11:56:23;;;;;;;10.27;1.85;;;20.10;99.90;;;;;;4942157;29;20049;-86
2022/05/26 11:59:23;;;;;;;10.65;2.15;;;20.10;99.90;;;;;;4924962;29;20066;-83
2022/05/26 12:01:59;;;;;;;8.48;1.40;;;20.20;99.90;;;;;;4940621;29;20059;-86
2022/05/26 12:04:36;;;;;;;4.97;1.17;;;20.20;99.90;;;;;;4946932;29;20059;-86
2022/05/26 12:07:18;;;;;;;11.30;1.92;;;20.30;99.50;;;;;;4949035;28;20063;-86
2022/05/26 12:09:58;;;;;;;11.00;1.67;;;20.30;99.40;;;;;;4959523;29;20078;-89
2022/05/26 12:12:24;;;;;;;7.28;1.45;;;20.20;99.20;;;;;;4942834;29;20059;-91
2022/05/26 12:14:52;;;;;;;7.93;1.48;;;20.30;99.30;;;;;;4941531;29;20154;-90
2022/05/26 12:17:33;;;;;;;9.35;1.23;;;20.60;99.50;;;;;;4961161;29;20062;-91
2022/05/26 12:20:11;;;;;;;8.20;1.38;;;21.10;98.90;;;;;;4966554;29;20074;-87
2022/05/26 12:22:46;;;;;;;8.07;1.10;;;21.00;97.20;;;;;;4970669;29;20062;-89
2022/05/26 12:25:24;;;;;;;7.05;1.40;;;21.00;97.20;;;;;;4966951;29;20043;-86
2022/05/26 12:27:54;;;;;;;6.40;1.95;;;21.10;97.90;;;;;;4960318;29;20047;-87
2022/05/26 12:30:52;;;;;;;7.95;2.20;;;20.90;97.90;;;;;;4926586;28;20134;-85
2022/05/26 12:33:20;;;;;;;6.22;1.30;;;20.60;97.60;;;;;;4933222;29;20059;-90
2022/05/26 12:36:01;;;;;;;6.55;1.23;;;20.50;97.90;;;;;;4960273;29;20051;-91
2022/05/26 12:38:59;;;;;;;8.98;1.60;;;20.90;99.30;;;;;;4958445;29;20078;-90
2022/05/26 12:41:49;;;;;;;9.10;1.13;;;20.50;97.40;;;;;;4957096;29;20448;-88
2022/05/26 12:44:53;;;;;;;6.95;1.10;;;20.50;98.50;;;;;;4923798;29;20047;-89
2022/05/26 12:47:36;;;;;;;10.15;2.60;;;20.60;99.00;;;;;;4940275;29;20090;-87
2022/05/26 12:50:16;;;;;;;7.32;1.40;;;20.70;98.20;;;;;;4940478;29;20043;-88
2022/05/26 12:52:48;;;;;;;8.82;1.20;;;20.60;98.50;;;;;;4957593;28;20063;-90
2022/05/26 12:55:29;;;;;;;6.13;1.42;;;20.40;99.20;;;;;;4959420;29;20407;-85
2022/05/26 12:58:02;;;;;;;7.10;1.17;;;20.30;99.30;;;;;;4922112;29;20063;-87
2022/05/26 13:00:38;;;;;;;7.13;1.30;;;20.40;99.90;;;;;;4937745;29;20047;-87
2022/05/26 13:03:23;;;;;;;9.00;1.48;;;20.00;99.00;;;;;;4939513;29;20390;-88
2022/05/26 13:06:10;;;;;;;6.63;1.55;;;19.80;99.60;;;;;;4958193;29;20061;-87
2022/05/26 13:09:14;;;;;;;11.70;2.13;;;19.50;99.90;;;;;;4939329;29;20055;-89
2022/05/26 13:11:52;;;;;;;8.63;1.35;;;19.30;99.90;;;;;;4926687;29;20047;-88
2022/05/26 13:14:33;;;;;;;5.70;1.70;;;19.30;99.90;;;;;;4961877;29;20047;-86
2022/05/26 13:17:24;;;;;;;8.63;1.42;;;19.10;99.90;;;;;;4963276;29;20051;-86
2022/05/26 13:19:52;;;;;;;6.85;1.10;;;19.00;99.90;;;;;;4942183;29;20066;-85
2022/05/26 13:22:31;;;;;;;9.80;1.63;;;18.60;99.90;;;;;;4960397;29;20130;-86
2022/05/26 13:25:02;;;;;;;7.50;1.98;;;18.40;99.90;;;;;;4959225;29;20054;-86
2022/05/26 13:27:43;;;;;;;8.85;1.50;;;18.30;99.90;;;;;;4959517;29;20074;-87
2022/05/26 13:33:09;;;;;;;5.45;1.10;;;18.00;99.90;;;;;;4938629;29;20515;-85
2022/05/26 13:35:41;;;;;;;12.15;2.38;;;17.70;99.90;;;;;;4941106;29;20070;-85
2022/05/26 13:38:32;;;;;;;7.10;1.50;;;17.70;99.90;;;;;;4941166;29;20090;-85
2022/05/26 13:41:00;;;;;;;6.25;1.33;;;17.70;99.90;;;;;;4942284;29;20059;-83
2022/05/26 13:43:28;;;;;;;8.95;1.40;;;17.60;99.90;;;;;;4941814;29;20491;-85
2022/05/26 13:45:55;;;;;;;8.40;1.63;;;17.50;99.90;;;;;;4960296;29;20054;-85
2022/05/26 13:48:32;;;;;;;10.52;2.10;;;17.50;99.90;;;;;;4961338;29;20086;-85
2022/05/26 13:51:22;;;;;;;7.75;1.60;;;17.50;99.90;;;;;;4960611;29;20086;-86
2022/05/26 13:54:13;;;;;;;8.80;1.33;;;17.40;99.90;;;;;;4941800;29;20054;-85
2022/05/26 13:56:45;;;;;;;6.90;1.38;;;17.40;99.90;;;;;;4943001;29;20059;-86
2022/05/26 13:59:13;;;;;;;10.02;2.38;;;17.30;99.90;;;;;;4959994;29;20051;-85